createdAt,value
2019-02-11T00:00:37.174Z,71.40
2019-02-11T00:01:13.480Z,71.40
2019-02-11T00:01:48.036Z,71.60
2019-02-11T00:02:22.528Z,71.80
2019-02-11T00:02:57.021Z,72.00
2019-02-11T00:03:31.514Z,71.90
2019-02-11T00:04:07.235Z,71.90
2019-02-11T00:04:41.793Z,71.90
2019-02-11T00:05:16.318Z,71.80
2019-02-11T00:05:50.813Z,71.60
2019-02-11T00:06:25.307Z,71.60
2019-02-11T00:06:59.808Z,71.60
2019-02-11T00:07:34.580Z,71.60
2019-02-11T00:08:09.090Z,71.60
2019-02-11T00:08:43.571Z,71.70
2019-02-11T00:09:18.050Z,71.60
2019-02-11T00:09:52.617Z,71.70
2019-02-11T00:10:27.140Z,71.60
2019-02-11T00:11:01.624Z,71.60
2019-02-11T00:11:36.143Z,71.80
2019-02-11T00:12:10.719Z,71.90
2019-02-11T00:12:45.331Z,71.80
2019-02-11T00:13:19.844Z,72.50
2019-02-11T00:13:54.391Z,71.80
2019-02-11T00:14:28.965Z,71.80
2019-02-11T00:15:03.636Z,71.80
2019-02-11T00:15:38.203Z,71.80
2019-02-11T00:16:12.699Z,71.90
2019-02-11T00:16:47.211Z,72.10
2019-02-11T00:17:21.760Z,72.20
2019-02-11T00:17:56.328Z,72.20
2019-02-11T00:18:30.856Z,72.30
2019-02-11T00:19:05.342Z,72.20
2019-02-11T00:19:39.831Z,72.20
2019-02-11T00:20:14.331Z,72.20
2019-02-11T00:20:48.924Z,72.20
2019-02-11T00:21:23.444Z,72.30
2019-02-11T00:21:57.982Z,72.30
2019-02-11T00:22:32.478Z,72.20
2019-02-11T00:23:06.972Z,72.10
2019-02-11T00:23:41.651Z,72.10
2019-02-11T00:24:16.146Z,72.20
2019-02-11T00:24:50.634Z,72.30
2019-02-11T00:25:25.565Z,72.50
2019-02-11T00:26:00.064Z,72.40
2019-02-11T00:26:35.357Z,72.60
2019-02-11T00:27:10.228Z,72.80
2019-02-11T00:27:44.723Z,72.90
2019-02-11T00:28:19.312Z,73.00
2019-02-11T00:28:54.524Z,73.00
2019-02-11T00:29:29.238Z,73.00
2019-02-11T00:30:04.523Z,72.90
2019-02-11T00:30:39.084Z,73.00
2019-02-11T00:31:13.588Z,73.00
2019-02-11T00:31:48.142Z,73.10
2019-02-11T00:32:22.639Z,73.00
2019-02-11T00:32:57.221Z,72.90
2019-02-11T00:33:31.797Z,72.90
2019-02-11T00:34:06.288Z,72.80
2019-02-11T00:34:40.780Z,72.90
2019-02-11T00:35:15.339Z,72.90
2019-02-11T00:35:50.064Z,73.00
2019-02-11T00:36:24.615Z,73.00
2019-02-11T00:36:59.124Z,72.90
2019-02-11T00:37:33.632Z,72.90
2019-02-11T00:38:08.108Z,72.90
2019-02-11T00:38:42.593Z,72.90
2019-02-11T00:39:17.085Z,72.90
2019-02-11T00:39:51.593Z,73.00
2019-02-11T00:40:26.142Z,73.00
2019-02-11T00:41:00.640Z,72.80
2019-02-11T00:41:36.390Z,72.70
2019-02-11T00:42:10.941Z,72.80
2019-02-11T00:42:45.428Z,72.70
2019-02-11T00:43:20.180Z,72.80
2019-02-11T00:43:54.678Z,73.70
2019-02-11T00:44:29.238Z,73.10
2019-02-11T00:45:04.374Z,73.20
2019-02-11T00:45:42.001Z,73.10
2019-02-11T00:46:16.499Z,73.30
2019-02-11T00:46:51.015Z,73.30
2019-02-11T00:47:25.508Z,73.30
2019-02-11T00:48:00.139Z,73.40
2019-02-11T00:48:34.626Z,73.40
2019-02-11T00:49:09.115Z,73.50
2019-02-11T00:49:43.608Z,73.50
2019-02-11T00:50:18.095Z,73.40
2019-02-11T00:50:52.581Z,73.50
2019-02-11T00:51:27.265Z,73.60
2019-02-11T00:52:01.777Z,73.50
2019-02-11T00:52:36.348Z,73.40
2019-02-11T00:53:10.838Z,73.30
2019-02-11T00:53:45.396Z,73.30
2019-02-11T00:54:19.889Z,73.40
2019-02-11T00:54:54.389Z,73.40
2019-02-11T00:55:28.940Z,73.40
2019-02-11T00:56:03.440Z,73.50
2019-02-11T00:56:38.009Z,73.40
2019-02-11T00:57:12.491Z,73.50
2019-02-11T00:57:46.981Z,73.40
2019-02-11T00:58:21.572Z,73.50
2019-02-11T00:58:56.119Z,73.50
2019-02-11T00:59:30.630Z,73.40
2019-02-11T01:00:08.592Z,73.50
2019-02-11T01:00:43.089Z,73.50
2019-02-11T01:01:17.621Z,73.50
2019-02-11T01:01:52.190Z,73.60
2019-02-11T01:02:26.683Z,73.60
2019-02-11T01:03:01.184Z,73.80
2019-02-11T01:03:35.685Z,73.90
2019-02-11T01:04:10.262Z,73.80
2019-02-11T01:04:44.821Z,73.60
2019-02-11T01:05:19.322Z,73.80
2019-02-11T01:05:53.819Z,73.60
2019-02-11T01:06:28.310Z,73.70
2019-02-11T01:07:02.870Z,73.70
2019-02-11T01:07:37.367Z,73.60
2019-02-11T01:08:11.924Z,73.60
2019-02-11T01:08:46.448Z,73.70
2019-02-11T01:09:21.022Z,73.70
2019-02-11T01:09:55.693Z,73.60
2019-02-11T01:10:30.349Z,73.60
2019-02-11T01:11:04.855Z,73.60
2019-02-11T01:11:39.367Z,73.70
2019-02-11T01:12:13.867Z,73.70
2019-02-11T01:12:48.535Z,73.80
2019-02-11T01:13:27.896Z,73.60
2019-02-11T01:13:59.230Z,74.40
2019-02-11T01:14:33.709Z,73.60
2019-02-11T01:15:10.445Z,73.60
2019-02-11T01:15:45.020Z,73.70
2019-02-11T01:16:19.589Z,73.50
2019-02-11T01:16:54.375Z,73.60
2019-02-11T01:17:28.938Z,73.60
2019-02-11T01:18:03.481Z,73.60
2019-02-11T01:18:37.970Z,73.60
2019-02-11T01:19:12.531Z,73.50
2019-02-11T01:19:47.045Z,73.70
2019-02-11T01:20:21.607Z,73.80
2019-02-11T01:20:56.362Z,73.80
2019-02-11T01:21:31.144Z,73.80
2019-02-11T01:22:05.684Z,73.70
2019-02-11T01:22:40.173Z,73.50
2019-02-11T01:23:14.727Z,73.50
2019-02-11T01:23:49.221Z,73.50
2019-02-11T01:24:23.985Z,73.60
2019-02-11T01:24:58.548Z,73.60
2019-02-11T01:25:33.026Z,73.60
2019-02-11T01:26:07.517Z,73.60
2019-02-11T01:26:42.001Z,73.70
2019-02-11T01:27:16.545Z,74.00
2019-02-11T01:27:51.031Z,74.00
2019-02-11T01:28:25.538Z,73.90
2019-02-11T01:29:00.107Z,73.70
2019-02-11T01:29:34.668Z,73.90
2019-02-11T01:30:11.406Z,73.80
2019-02-11T01:30:45.902Z,73.80
2019-02-11T01:31:20.807Z,74.00
2019-02-11T01:31:55.304Z,73.80
2019-02-11T01:32:30.151Z,74.00
2019-02-11T01:33:04.796Z,74.10
2019-02-11T01:33:39.314Z,74.10
2019-02-11T01:34:13.856Z,74.00
2019-02-11T01:34:48.351Z,74.00
2019-02-11T01:35:22.900Z,74.10
2019-02-11T01:35:57.463Z,74.00
2019-02-11T01:36:32.020Z,74.00
2019-02-11T01:37:06.579Z,74.10
2019-02-11T01:37:42.668Z,74.20
2019-02-11T01:38:17.514Z,74.20
2019-02-11T01:38:52.190Z,74.10
2019-02-11T01:39:26.686Z,74.10
2019-02-11T01:40:01.198Z,74.10
2019-02-11T01:40:35.781Z,74.20
2019-02-11T01:41:10.276Z,74.00
2019-02-11T01:41:44.841Z,74.00
2019-02-11T01:42:19.460Z,74.00
2019-02-11T01:42:54.203Z,73.90
2019-02-11T01:43:35.965Z,73.90
2019-02-11T01:44:04.886Z,73.80
2019-02-11T01:44:39.449Z,73.80
2019-02-11T01:45:13.957Z,73.60
2019-02-11T01:45:48.466Z,73.50
2019-02-11T01:46:23.008Z,73.40
2019-02-11T01:46:57.570Z,73.50
2019-02-11T01:47:32.195Z,73.50
2019-02-11T01:48:06.704Z,73.50
2019-02-11T01:48:41.251Z,73.60
2019-02-11T01:49:15.778Z,73.60
2019-02-11T01:49:50.351Z,73.60
2019-02-11T01:50:25.157Z,73.70
2019-02-11T01:50:59.669Z,73.70
2019-02-11T01:51:34.233Z,73.50
2019-02-11T01:52:08.781Z,74.20
2019-02-11T01:52:43.303Z,73.60
2019-02-11T01:53:17.868Z,73.80
2019-02-11T01:53:52.367Z,73.80
2019-02-11T01:54:26.860Z,73.90
2019-02-11T01:55:01.458Z,74.00
2019-02-11T01:55:36.385Z,74.20
2019-02-11T01:56:10.973Z,74.20
2019-02-11T01:56:45.467Z,74.40
2019-02-11T01:57:19.965Z,74.50
2019-02-11T01:57:54.529Z,74.60
2019-02-11T01:58:29.025Z,74.80
2019-02-11T01:59:03.508Z,75.00
2019-02-11T01:59:38.101Z,75.10
2019-02-11T02:00:13.723Z,75.20
2019-02-11T02:00:48.221Z,75.30
2019-02-11T02:01:22.747Z,75.40
2019-02-11T02:01:57.250Z,75.40
2019-02-11T02:02:31.742Z,75.40
2019-02-11T02:03:06.279Z,75.40
2019-02-11T02:03:40.767Z,75.40
2019-02-11T02:04:15.257Z,75.20
2019-02-11T02:04:49.761Z,75.40
2019-02-11T02:05:24.251Z,75.30
2019-02-11T02:05:58.746Z,75.30
2019-02-11T02:06:35.912Z,75.40
2019-02-11T02:07:10.489Z,75.30
2019-02-11T02:07:45.110Z,75.20
2019-02-11T02:08:21.959Z,75.20
2019-02-11T02:08:56.449Z,75.30
2019-02-11T02:09:31.001Z,75.20
2019-02-11T02:10:11.390Z,75.40
2019-02-11T02:10:45.901Z,75.20
2019-02-11T02:11:20.408Z,75.00
2019-02-11T02:11:54.965Z,74.80
2019-02-11T02:12:29.460Z,74.80
2019-02-11T02:13:04.030Z,74.70
2019-02-11T02:13:44.581Z,74.70
2019-02-11T02:14:14.768Z,74.70
2019-02-11T02:14:49.251Z,74.80
2019-02-11T02:15:23.769Z,74.70
2019-02-11T02:15:58.324Z,74.70
2019-02-11T02:16:32.959Z,74.60
2019-02-11T02:17:07.480Z,74.20
2019-02-11T02:17:41.981Z,74.10
2019-02-11T02:18:16.461Z,74.20
2019-02-11T02:18:51.064Z,74.20
2019-02-11T02:19:25.626Z,74.20
2019-02-11T02:20:00.250Z,74.10
2019-02-11T02:20:34.755Z,74.20
2019-02-11T02:21:09.248Z,74.20
2019-02-11T02:21:43.745Z,74.00
2019-02-11T02:22:18.317Z,74.10
2019-02-11T02:22:52.813Z,74.10
2019-02-11T02:23:27.323Z,74.00
2019-02-11T02:24:01.888Z,74.10
2019-02-11T02:24:36.453Z,74.30
2019-02-11T02:25:11.875Z,74.20
2019-02-11T02:25:47.210Z,74.30
2019-02-11T02:26:21.765Z,74.40
2019-02-11T02:26:56.256Z,74.70
2019-02-11T02:27:30.749Z,74.60
2019-02-11T02:28:05.293Z,74.70
2019-02-11T02:28:41.863Z,74.70
2019-02-11T02:29:16.465Z,74.60
2019-02-11T02:29:51.026Z,74.60
2019-02-11T02:30:25.535Z,74.60
2019-02-11T02:31:00.179Z,74.60
2019-02-11T02:31:34.918Z,74.40
2019-02-11T02:32:09.476Z,74.60
2019-02-11T02:32:44.211Z,74.70
2019-02-11T02:33:18.707Z,74.60
2019-02-11T02:33:53.260Z,74.60
2019-02-11T02:34:27.806Z,74.60
2019-02-11T02:35:02.322Z,74.60
2019-02-11T02:35:36.944Z,74.70
2019-02-11T02:36:11.481Z,74.60
2019-02-11T02:36:46.579Z,74.70
2019-02-11T02:37:21.137Z,74.70
2019-02-11T02:37:55.630Z,74.70
2019-02-11T02:38:30.128Z,74.70
2019-02-11T02:39:05.627Z,74.80
2019-02-11T02:39:40.113Z,74.90
2019-02-11T02:40:14.627Z,75.00
2019-02-11T02:40:49.172Z,75.10
2019-02-11T02:41:23.663Z,75.10
2019-02-11T02:41:58.917Z,75.00
2019-02-11T02:42:33.679Z,75.10
2019-02-11T02:43:08.172Z,75.30
2019-02-11T02:43:42.704Z,75.30
2019-02-11T02:44:17.206Z,75.30
2019-02-11T02:44:51.753Z,75.30
2019-02-11T02:45:26.250Z,75.30
2019-02-11T02:46:00.742Z,75.40
2019-02-11T02:46:35.249Z,75.40
2019-02-11T02:47:09.751Z,75.50
2019-02-11T02:47:44.295Z,75.50
2019-02-11T02:48:18.836Z,75.40
2019-02-11T02:48:53.369Z,75.60
2019-02-11T02:49:27.991Z,75.70
2019-02-11T02:50:02.485Z,75.60
2019-02-11T02:50:36.966Z,75.80
2019-02-11T02:51:11.467Z,75.90
2019-02-11T02:51:45.961Z,75.90
2019-02-11T02:52:20.521Z,76.00
2019-02-11T02:52:55.085Z,76.00
2019-02-11T02:53:29.622Z,76.20
2019-02-11T02:54:04.157Z,76.10
2019-02-11T02:54:38.709Z,76.30
2019-02-11T02:55:13.332Z,76.40
2019-02-11T02:55:47.872Z,76.70
2019-02-11T02:56:22.414Z,77.00
2019-02-11T02:56:56.895Z,77.10
2019-02-11T02:57:31.377Z,77.10
2019-02-11T02:58:05.957Z,77.20
2019-02-11T02:58:40.508Z,77.30
2019-02-11T02:59:15.018Z,77.40
2019-02-11T02:59:49.526Z,77.50
2019-02-11T03:00:24.086Z,77.60
2019-02-11T03:00:58.592Z,78.00
2019-02-11T03:01:33.149Z,78.20
2019-02-11T03:02:07.721Z,78.40
2019-02-11T03:02:42.217Z,78.60
2019-02-11T03:03:16.706Z,78.90
2019-02-11T03:03:51.195Z,79.10
2019-02-11T03:04:25.694Z,79.00
2019-02-11T03:05:00.521Z,79.20
2019-02-11T03:05:35.023Z,79.20
2019-02-11T03:06:09.583Z,79.40
2019-02-11T03:06:44.097Z,79.50
2019-02-11T03:07:18.581Z,79.50
2019-02-11T03:07:53.093Z,79.70
2019-02-11T03:08:29.346Z,79.90
2019-02-11T03:09:04.683Z,80.00
2019-02-11T03:09:39.631Z,80.20
2019-02-11T03:10:14.466Z,80.20
2019-02-11T03:10:48.993Z,80.20
2019-02-11T03:11:23.569Z,80.40
2019-02-11T03:11:58.132Z,80.40
2019-02-11T03:12:32.973Z,80.40
2019-02-11T03:13:07.493Z,80.30
2019-02-11T03:13:42.122Z,80.30
2019-02-11T03:14:16.677Z,80.30
2019-02-11T03:14:51.182Z,80.20
2019-02-11T03:15:25.665Z,80.30
2019-02-11T03:16:00.155Z,80.40
2019-02-11T03:16:34.667Z,80.70
2019-02-11T03:17:09.222Z,80.80
2019-02-11T03:17:43.724Z,80.90
2019-02-11T03:18:18.213Z,80.80
2019-02-11T03:18:52.815Z,80.80
2019-02-11T03:19:27.349Z,80.90
2019-02-11T03:20:01.844Z,80.90
2019-02-11T03:20:36.406Z,80.80
2019-02-11T03:21:10.922Z,80.80
2019-02-11T03:21:46.550Z,81.10
2019-02-11T03:22:21.081Z,81.50
2019-02-11T03:22:55.655Z,82.00
2019-02-11T03:23:30.143Z,82.40
2019-02-11T03:24:04.628Z,82.50
2019-02-11T03:24:39.155Z,82.60
2019-02-11T03:25:13.637Z,82.80
2019-02-11T03:25:48.184Z,83.00
2019-02-11T03:26:22.677Z,83.00
2019-02-11T03:26:57.214Z,83.10
2019-02-11T03:27:31.757Z,83.10
2019-02-11T03:28:06.271Z,83.30
2019-02-11T03:28:40.902Z,83.30
2019-02-11T03:29:15.402Z,83.60
2019-02-11T03:29:49.960Z,83.80
2019-02-11T03:30:24.522Z,83.80
2019-02-11T03:30:59.095Z,83.90
2019-02-11T03:31:33.597Z,83.90
2019-02-11T03:32:08.151Z,83.80
2019-02-11T03:32:42.673Z,83.90
2019-02-11T03:33:17.273Z,83.90
2019-02-11T03:33:51.849Z,84.00
2019-02-11T03:34:26.399Z,84.00
2019-02-11T03:35:00.933Z,84.10
2019-02-11T03:35:35.500Z,84.20
2019-02-11T03:36:10.129Z,84.40
2019-02-11T03:36:44.632Z,84.50
2019-02-11T03:37:19.197Z,84.70
2019-02-11T03:37:53.782Z,84.70
2019-02-11T03:38:28.260Z,84.90
2019-02-11T03:39:02.922Z,84.70
2019-02-11T03:39:37.493Z,84.50
2019-02-11T03:40:12.019Z,84.50
2019-02-11T03:40:46.602Z,84.50
2019-02-11T03:41:21.159Z,84.30
2019-02-11T03:41:55.889Z,84.10
2019-02-11T03:42:30.457Z,83.60
2019-02-11T03:43:05.242Z,83.40
2019-02-11T03:43:39.807Z,83.10
2019-02-11T03:44:15.325Z,82.60
2019-02-11T03:44:49.942Z,82.60
2019-02-11T03:45:24.490Z,82.60
2019-02-11T03:45:59.067Z,82.30
2019-02-11T03:46:33.565Z,82.10
2019-02-11T03:47:08.065Z,82.30
2019-02-11T03:47:42.574Z,82.30
2019-02-11T03:48:17.074Z,82.10
2019-02-11T03:48:51.625Z,82.00
2019-02-11T03:49:26.119Z,81.70
2019-02-11T03:50:00.705Z,81.70
2019-02-11T03:50:35.210Z,81.50
2019-02-11T03:51:09.707Z,81.10
2019-02-11T03:51:44.191Z,80.90
2019-02-11T03:52:18.682Z,80.80
2019-02-11T03:52:53.240Z,80.90
2019-02-11T03:53:27.777Z,80.90
2019-02-11T03:54:02.282Z,80.90
2019-02-11T03:54:38.280Z,81.10
2019-02-11T03:55:12.775Z,81.00
2019-02-11T03:55:47.403Z,81.00
2019-02-11T03:56:21.898Z,81.00
2019-02-11T03:56:56.390Z,80.80
2019-02-11T03:57:31.216Z,80.60
2019-02-11T03:58:06.087Z,80.30
2019-02-11T03:58:40.717Z,80.10
2019-02-11T03:59:15.293Z,79.70
2019-02-11T03:59:49.801Z,79.60
2019-02-11T04:00:24.294Z,79.50
2019-02-11T04:00:58.785Z,79.50
2019-02-11T04:01:33.277Z,79.20
2019-02-11T04:02:07.763Z,79.30
2019-02-11T04:02:42.268Z,79.30
2019-02-11T04:03:16.754Z,79.00
2019-02-11T04:03:51.257Z,78.90
2019-02-11T04:04:25.776Z,78.60
2019-02-11T04:05:00.307Z,78.60
2019-02-11T04:05:34.839Z,78.80
2019-02-11T04:06:09.333Z,78.70
2019-02-11T04:06:43.825Z,78.90
2019-02-11T04:07:18.314Z,79.20
2019-02-11T04:07:52.827Z,79.20
2019-02-11T04:08:29.187Z,79.30
2019-02-11T04:09:06.088Z,79.40
2019-02-11T04:09:40.667Z,79.40
2019-02-11T04:10:15.220Z,79.60
2019-02-11T04:10:49.711Z,79.60
2019-02-11T04:11:24.200Z,79.40
2019-02-11T04:11:58.771Z,79.40
2019-02-11T04:12:33.329Z,79.30
2019-02-11T04:13:07.839Z,79.30
2019-02-11T04:13:42.391Z,79.30
2019-02-11T04:14:24.760Z,79.40
2019-02-11T04:14:53.074Z,79.40
2019-02-11T04:15:27.580Z,79.40
2019-02-11T04:16:02.126Z,79.40
2019-02-11T04:16:36.625Z,79.30
2019-02-11T04:17:11.110Z,79.20
2019-02-11T04:17:45.653Z,79.30
2019-02-11T04:18:20.205Z,79.20
2019-02-11T04:18:54.707Z,79.30
2019-02-11T04:19:29.330Z,79.50
2019-02-11T04:20:04.542Z,79.30
2019-02-11T04:20:39.301Z,79.40
2019-02-11T04:21:13.869Z,79.30
2019-02-11T04:21:49.876Z,79.30
2019-02-11T04:22:24.374Z,79.10
2019-02-11T04:22:58.905Z,79.20
2019-02-11T04:23:33.391Z,78.90
2019-02-11T04:24:07.883Z,78.80
2019-02-11T04:24:42.379Z,78.90
2019-02-11T04:25:16.865Z,79.20
2019-02-11T04:25:51.344Z,79.00
2019-02-11T04:26:28.282Z,79.00
2019-02-11T04:27:03.347Z,79.20
2019-02-11T04:27:37.833Z,79.40
2019-02-11T04:28:12.327Z,79.40
2019-02-11T04:28:46.819Z,79.40
2019-02-11T04:29:21.322Z,79.20
2019-02-11T04:29:55.827Z,79.20
2019-02-11T04:30:30.325Z,79.20
2019-02-11T04:31:04.828Z,79.20
2019-02-11T04:31:39.335Z,79.00
2019-02-11T04:32:13.830Z,79.00
2019-02-11T04:32:48.313Z,79.00
2019-02-11T04:33:22.799Z,78.80
2019-02-11T04:33:58.315Z,78.80
2019-02-11T04:34:32.866Z,78.70
2019-02-11T04:35:07.362Z,78.70
2019-02-11T04:35:41.923Z,78.40
2019-02-11T04:36:16.413Z,78.60
2019-02-11T04:36:51.058Z,78.50
2019-02-11T04:37:25.546Z,78.30
2019-02-11T04:38:00.043Z,78.50
2019-02-11T04:38:34.624Z,78.50
2019-02-11T04:39:09.146Z,78.20
2019-02-11T04:39:46.298Z,78.10
2019-02-11T04:40:20.853Z,78.30
2019-02-11T04:40:55.342Z,78.10
2019-02-11T04:41:29.909Z,78.00
2019-02-11T04:42:04.435Z,78.00
2019-02-11T04:42:38.991Z,77.90
2019-02-11T04:43:13.485Z,77.90
2019-02-11T04:43:48.059Z,77.60
2019-02-11T04:44:22.616Z,77.50
2019-02-11T04:44:57.188Z,77.60
2019-02-11T04:45:31.700Z,77.60
2019-02-11T04:46:06.254Z,77.40
2019-02-11T04:46:40.808Z,77.60
2019-02-11T04:47:15.544Z,77.60
2019-02-11T04:47:50.037Z,77.50
2019-02-11T04:48:24.536Z,77.60
2019-02-11T04:48:59.038Z,77.40
2019-02-11T04:49:33.568Z,78.10
2019-02-11T04:50:09.815Z,77.40
2019-02-11T04:50:44.307Z,77.30
2019-02-11T04:51:18.793Z,77.10
2019-02-11T04:51:53.372Z,76.90
2019-02-11T04:52:27.969Z,77.10
2019-02-11T04:53:02.471Z,76.90
2019-02-11T04:53:37.033Z,77.10
2019-02-11T04:54:11.785Z,77.20
2019-02-11T04:54:46.295Z,77.20
2019-02-11T04:55:20.924Z,77.30
2019-02-11T04:55:55.515Z,77.30
2019-02-11T04:56:30.026Z,77.20
2019-02-11T04:57:04.593Z,77.30
2019-02-11T04:57:39.237Z,77.50
2019-02-11T04:58:13.789Z,77.40
2019-02-11T04:58:48.377Z,77.40
2019-02-11T04:59:22.937Z,77.30
2019-02-11T04:59:58.428Z,77.20
2019-02-11T05:00:33.241Z,77.30
2019-02-11T05:01:07.868Z,77.30
2019-02-11T05:01:42.386Z,77.30
2019-02-11T05:02:16.955Z,77.40
2019-02-11T05:02:51.537Z,77.50
2019-02-11T05:03:26.208Z,77.50
2019-02-11T05:04:00.723Z,77.60
2019-02-11T05:04:35.362Z,77.70
2019-02-11T05:05:10.571Z,77.80
2019-02-11T05:05:45.170Z,77.80
2019-02-11T05:06:19.785Z,77.80
2019-02-11T05:06:54.283Z,78.00
2019-02-11T05:07:28.958Z,78.10
2019-02-11T05:08:03.541Z,78.30
2019-02-11T05:08:38.034Z,78.30
2019-02-11T05:09:12.539Z,78.30
2019-02-11T05:09:47.036Z,78.30
2019-02-11T05:10:21.537Z,78.30
2019-02-11T05:10:56.235Z,78.40
2019-02-11T05:11:30.737Z,78.20
2019-02-11T05:12:05.237Z,78.10
2019-02-11T05:12:39.720Z,78.40
2019-02-11T05:13:14.213Z,78.10
2019-02-11T05:13:48.723Z,78.10
2019-02-11T05:14:23.314Z,78.30
2019-02-11T05:14:57.849Z,78.40
2019-02-11T05:15:32.358Z,78.30
2019-02-11T05:16:06.909Z,78.30
2019-02-11T05:16:41.400Z,78.20
2019-02-11T05:17:15.927Z,78.00
2019-02-11T05:17:50.485Z,78.10
2019-02-11T05:18:24.995Z,78.30
2019-02-11T05:18:59.558Z,78.30
2019-02-11T05:19:34.110Z,78.20
2019-02-11T05:20:10.872Z,78.20
2019-02-11T05:20:45.432Z,78.30
2019-02-11T05:21:20.009Z,78.30
2019-02-11T05:21:54.654Z,78.30
2019-02-11T05:22:29.203Z,78.20
2019-02-11T05:23:03.696Z,78.30
2019-02-11T05:23:38.257Z,78.10
2019-02-11T05:24:12.740Z,78.00
2019-02-11T05:24:47.241Z,78.10
2019-02-11T05:25:21.818Z,78.00
2019-02-11T05:25:56.311Z,78.00
2019-02-11T05:26:30.869Z,78.10
2019-02-11T05:27:05.371Z,78.00
2019-02-11T05:27:39.926Z,78.20
2019-02-11T05:28:14.507Z,78.00
2019-02-11T05:28:49.066Z,78.00
2019-02-11T05:29:23.617Z,78.00
2019-02-11T05:29:58.120Z,78.10
2019-02-11T05:30:32.795Z,78.20
2019-02-11T05:31:07.325Z,78.10
2019-02-11T05:31:41.812Z,78.30
2019-02-11T05:32:16.300Z,78.50
2019-02-11T05:32:50.841Z,78.70
2019-02-11T05:33:25.400Z,78.70
2019-02-11T05:33:59.916Z,78.80
2019-02-11T05:34:34.585Z,78.80
2019-02-11T05:35:09.463Z,78.90
2019-02-11T05:35:44.065Z,79.00
2019-02-11T05:36:18.548Z,79.20
2019-02-11T05:36:53.058Z,79.30
2019-02-11T05:37:28.209Z,79.60
2019-02-11T05:38:02.806Z,79.70
2019-02-11T05:38:37.606Z,80.10
2019-02-11T05:39:12.117Z,80.50
2019-02-11T05:39:46.641Z,80.90
2019-02-11T05:40:21.132Z,81.10
2019-02-11T05:40:55.647Z,81.40
2019-02-11T05:41:30.610Z,81.60
2019-02-11T05:42:05.175Z,81.90
2019-02-11T05:42:39.689Z,82.20
2019-02-11T05:43:14.198Z,82.50
2019-02-11T05:43:48.689Z,82.80
2019-02-11T05:44:23.181Z,83.20
2019-02-11T05:44:57.684Z,83.60
2019-02-11T05:45:32.189Z,83.90
2019-02-11T05:46:06.740Z,84.30
2019-02-11T05:46:41.237Z,84.50
2019-02-11T05:47:15.796Z,85.00
2019-02-11T05:47:50.292Z,85.30
2019-02-11T05:48:24.880Z,85.60
2019-02-11T05:48:59.982Z,86.00
2019-02-11T05:49:34.511Z,86.10
2019-02-11T05:50:12.518Z,86.60
2019-02-11T05:50:47.078Z,86.90
2019-02-11T05:51:21.644Z,87.10
2019-02-11T05:51:56.228Z,87.50
2019-02-11T05:52:30.781Z,87.90
2019-02-11T05:53:05.356Z,88.00
2019-02-11T05:53:39.922Z,88.00
2019-02-11T05:54:14.409Z,88.30
2019-02-11T05:54:48.910Z,88.30
2019-02-11T05:55:24.041Z,88.20
2019-02-11T05:55:58.804Z,88.50
2019-02-11T05:56:33.313Z,88.70
2019-02-11T05:57:07.871Z,89.20
2019-02-11T05:57:42.422Z,91.70
2019-02-11T05:58:16.929Z,92.80
2019-02-11T05:58:51.473Z,92.10
2019-02-11T05:59:26.005Z,91.30
2019-02-11T06:00:00.691Z,91.20
2019-02-11T06:00:35.247Z,91.50
2019-02-11T06:01:09.809Z,91.40
2019-02-11T06:01:44.321Z,91.20
2019-02-11T06:02:20.521Z,91.00
2019-02-11T06:02:55.032Z,90.90
2019-02-11T06:03:29.519Z,90.70
2019-02-11T06:04:04.081Z,90.70
2019-02-11T06:04:38.694Z,90.80
2019-02-11T06:05:13.257Z,90.60
2019-02-11T06:05:47.754Z,90.10
2019-02-11T06:06:23.206Z,90.00
2019-02-11T06:06:57.737Z,89.80
2019-02-11T06:07:32.236Z,89.20
2019-02-11T06:08:06.729Z,89.20
2019-02-11T06:08:43.848Z,89.60
2019-02-11T06:09:18.360Z,89.50
2019-02-11T06:09:52.861Z,88.80
2019-02-11T06:10:27.416Z,89.20
2019-02-11T06:11:01.913Z,89.20
2019-02-11T06:11:36.472Z,90.00
2019-02-11T06:12:11.031Z,89.60
2019-02-11T06:12:45.574Z,89.90
2019-02-11T06:13:20.098Z,89.00
2019-02-11T06:13:54.628Z,89.20
2019-02-11T06:14:29.133Z,90.20
2019-02-11T06:15:04.948Z,89.80
2019-02-11T06:15:39.514Z,89.30
2019-02-11T06:16:14.025Z,88.10
2019-02-11T06:16:48.559Z,87.90
2019-02-11T06:17:23.158Z,88.30
2019-02-11T06:17:58.172Z,88.50
2019-02-11T06:18:32.666Z,88.80
2019-02-11T06:19:07.323Z,89.40
2019-02-11T06:19:42.114Z,89.90
2019-02-11T06:20:16.814Z,90.20
2019-02-11T06:20:51.516Z,90.40
2019-02-11T06:21:28.636Z,90.80
2019-02-11T06:22:03.856Z,91.00
2019-02-11T06:22:38.660Z,91.20
2019-02-11T06:23:13.492Z,91.30
2019-02-11T06:23:48.240Z,91.50
2019-02-11T06:24:22.887Z,91.60
2019-02-11T06:24:57.470Z,91.60
2019-02-11T06:25:32.213Z,91.60
2019-02-11T06:26:07.065Z,91.70
2019-02-11T06:26:41.610Z,91.80
2019-02-11T06:27:17.457Z,91.70
2019-02-11T06:27:52.226Z,91.90
2019-02-11T06:28:26.862Z,92.00
2019-02-11T06:29:01.375Z,92.10
2019-02-11T06:29:36.038Z,92.20
2019-02-11T06:30:12.825Z,92.30
2019-02-11T06:30:51.954Z,92.30
2019-02-11T06:31:27.160Z,92.30
2019-02-11T06:32:02.079Z,92.40
2019-02-11T06:32:36.993Z,92.40
2019-02-11T06:33:11.658Z,92.50
2019-02-11T06:33:46.559Z,92.50
2019-02-11T06:34:21.177Z,92.50
2019-02-11T06:34:55.737Z,92.60
2019-02-11T06:35:30.229Z,92.60
2019-02-11T06:36:11.764Z,92.60
2019-02-11T06:36:40.990Z,92.60
2019-02-11T06:37:15.511Z,92.70
2019-02-11T06:37:50.042Z,92.70
2019-02-11T06:38:24.834Z,92.70
2019-02-11T06:38:59.404Z,92.80
2019-02-11T06:39:33.901Z,92.80
2019-02-11T06:40:10.236Z,92.60
2019-02-11T06:40:44.886Z,92.60
2019-02-11T06:41:19.451Z,92.60
2019-02-11T06:41:53.942Z,92.60
2019-02-11T06:42:28.423Z,92.60
2019-02-11T06:43:03.034Z,92.60
2019-02-11T06:43:37.584Z,92.70
2019-02-11T06:44:12.090Z,92.60
2019-02-11T06:44:46.680Z,92.80
2019-02-11T06:45:21.239Z,92.80
2019-02-11T06:45:55.758Z,92.90
2019-02-11T06:46:30.249Z,92.90
2019-02-11T06:47:04.891Z,92.90
2019-02-11T06:47:39.448Z,93.20
2019-02-11T06:48:14.017Z,92.80
2019-02-11T06:48:48.515Z,92.80
2019-02-11T06:49:23.075Z,92.80
2019-02-11T06:49:57.563Z,92.80
2019-02-11T06:50:32.101Z,93.00
2019-02-11T06:51:06.693Z,93.10
2019-02-11T06:51:41.244Z,93.10
2019-02-11T06:52:15.741Z,93.10
2019-02-11T06:52:50.234Z,93.20
2019-02-11T06:53:24.725Z,93.20
2019-02-11T06:53:59.218Z,93.30
2019-02-11T06:54:33.790Z,93.30
2019-02-11T06:55:11.341Z,93.20
2019-02-11T06:55:45.928Z,93.20
2019-02-11T06:56:20.424Z,93.30
2019-02-11T06:56:54.997Z,93.30
2019-02-11T06:57:29.544Z,93.20
2019-02-11T06:58:04.049Z,93.20
2019-02-11T06:58:38.608Z,93.30
2019-02-11T06:59:13.375Z,93.30
2019-02-11T06:59:47.878Z,93.30
2019-02-11T07:00:22.435Z,93.20
2019-02-11T07:00:56.940Z,93.20
2019-02-11T07:01:31.502Z,93.30
2019-02-11T07:02:05.987Z,93.20
2019-02-11T07:02:40.548Z,93.10
2019-02-11T07:03:15.248Z,93.20
2019-02-11T07:03:49.728Z,93.20
2019-02-11T07:04:24.236Z,93.10
2019-02-11T07:04:58.721Z,93.10
2019-02-11T07:05:33.216Z,93.20
2019-02-11T07:06:07.826Z,93.10
2019-02-11T07:06:42.353Z,93.10
2019-02-11T07:07:16.961Z,93.10
2019-02-11T07:07:51.588Z,93.00
2019-02-11T07:08:26.072Z,93.00
2019-02-11T07:09:00.566Z,93.10
2019-02-11T07:09:35.145Z,93.10
2019-02-11T07:10:12.526Z,93.00
2019-02-11T07:10:55.234Z,92.90
2019-02-11T07:11:23.237Z,93.00
2019-02-11T07:11:57.732Z,93.10
2019-02-11T07:12:32.321Z,93.20
2019-02-11T07:13:06.808Z,93.20
2019-02-11T07:13:41.304Z,93.20
2019-02-11T07:14:15.796Z,93.10
2019-02-11T07:14:50.288Z,93.20
2019-02-11T07:15:24.773Z,93.30
2019-02-11T07:15:59.274Z,93.30
2019-02-11T07:16:33.769Z,93.10
2019-02-11T07:17:08.252Z,93.20
2019-02-11T07:17:42.735Z,93.30
2019-02-11T07:18:17.233Z,93.40
2019-02-11T07:18:51.819Z,93.40
2019-02-11T07:19:26.307Z,93.60
2019-02-11T07:20:00.802Z,93.50
2019-02-11T07:20:35.287Z,93.30
2019-02-11T07:21:09.828Z,93.30
2019-02-11T07:21:44.615Z,93.30
2019-02-11T07:22:19.169Z,93.40
2019-02-11T07:22:53.673Z,93.40
2019-02-11T07:23:28.338Z,93.50
2019-02-11T07:24:02.824Z,93.50
2019-02-11T07:24:37.308Z,93.60
2019-02-11T07:25:12.504Z,93.60
2019-02-11T07:25:47.062Z,93.60
2019-02-11T07:26:21.907Z,93.60
2019-02-11T07:26:56.482Z,93.50